Terminal Aerodrome Forecast
Issued by NWS Sterling, VA

Current Version | Previous Version | Text Only | Print | Product List | Glossary Off
Versions: 1 2 3 4 5 6 7 8 9 10 11 12 13 14 15 16 17 18 19 20 21 22 23 24 25 26 27

000
FTUS41 KLWX 172054 AAC
TAFDCA
TAF AMD
KDCA 172054Z 1721/1824 13006KT 5SM -SNPL OVC030
      TEMPO 1721/1724 2SM -SN BR OVC020
     FM180000 VRB03KT 3SM -SN BR OVC015
     FM180400 VRB03KT 3SM BR OVC008
     FM180700 27004KT P6SM BKN250
     FM182300 16004KT P6SM FEW250=

USA.gov is the U.S. government's official web portal to all federal, state and local government web resources and services.